sensor_id;sensor_type;location;lat;lon;timestamp;temperature;humidity
10314;DHT22;5202;49.138;10.090;2023-04-12T00:00:16;6.60;99.90
10314;DHT22;5202;49.138;10.090;2023-04-12T00:02:45;6.60;99.90
10314;DHT22;5202;49.138;10.090;2023-04-12T00:05:22;6.50;99.90
10314;DHT22;5202;49.138;10.090;2023-04-12T00:07:53;6.50;99.90
10314;DHT22;5202;49.138;10.090;2023-04-12T00:10:21;6.50;99.90
10314;DHT22;5202;49.138;10.090;2023-04-12T00:12:50;6.50;99.90
10314;DHT22;5202;49.138;10.090;2023-04-12T00:15:18;6.50;99.90
10314;DHT22;5202;49.138;10.090;2023-04-12T00:17:46;6.60;99.90
10314;DHT22;5202;49.138;10.090;2023-04-12T00:20:15;6.60;99.90
10314;DHT22;5202;49.138;10.090;2023-04-12T00:22:45;6.60;99.90
10314;DHT22;5202;49.138;10.090;2023-04-12T00:25:13;6.70;99.90
10314;DHT22;5202;49.138;10.090;2023-04-12T00:27:41;6.70;99.90
10314;DHT22;5202;49.138;10.090;2023-04-12T00:30:10;6.70;99.90
10314;DHT22;5202;49.138;10.090;2023-04-12T00:32:41;6.70;99.90
10314;DHT22;5202;49.138;10.090;2023-04-12T00:35:10;6.70;99.90
10314;DHT22;5202;49.138;10.090;2023-04-12T00:37:38;6.70;99.90
10314;DHT22;5202;49.138;10.090;2023-04-12T00:40:10;6.60;99.90
10314;DHT22;5202;49.138;10.090;2023-04-12T00:42:39;6.50;99.90
10314;DHT22;5202;49.138;10.090;2023-04-12T00:45:08;6.50;99.90
10314;DHT22;5202;49.138;10.090;2023-04-12T00:47:37;6.50;99.90
10314;DHT22;5202;49.138;10.090;2023-04-12T00:50:10;6.40;99.90
10314;DHT22;5202;49.138;10.090;2023-04-12T00:52:39;6.40;99.90
10314;DHT22;5202;49.138;10.090;2023-04-12T00:55:09;6.50;99.90
10314;DHT22;5202;49.138;10.090;2023-04-12T00:57:38;6.50;99.90
10314;DHT22;5202;49.138;10.090;2023-04-12T01:00:09;6.40;99.90
10314;DHT22;5202;49.138;10.090;2023-04-12T01:02:39;6.40;99.90
10314;DHT22;5202;49.138;10.090;2023-04-12T01:05:14;6.50;99.90
10314;DHT22;5202;49.138;10.090;2023-04-12T01:07:51;6.50;99.90
10314;DHT22;5202;49.138;10.090;2023-04-12T01:10:35;6.50;99.90
10314;DHT22;5202;49.138;10.090;2023-04-12T01:13:17;6.40;99.90
10314;DHT22;5202;49.138;10.090;2023-04-12T01:15:55;6.30;99.90
10314;DHT22;5202;49.138;10.090;2023-04-12T01:18:28;6.40;99.90
10314;DHT22;5202;49.138;10.090;2023-04-12T01:21:04;6.40;99.90
10314;DHT22;5202;49.138;10.090;2023-04-12T01:23:50;6.40;99.90
10314;DHT22;5202;49.138;10.090;2023-04-12T01:26:40;6.50;99.90
10314;DHT22;5202;49.138;10.090;2023-04-12T01:29:13;6.60;99.90
10314;DHT22;5202;49.138;10.090;2023-04-12T01:31:50;6.60;99.90
10314;DHT22;5202;49.138;10.090;2023-04-12T01:34:22;6.70;99.90
10314;DHT22;5202;49.138;10.090;2023-04-12T01:36:53;6.70;99.90
10314;DHT22;5202;49.138;10.090;2023-04-12T01:39:22;6.80;99.90
10314;DHT22;5202;49.138;10.090;2023-04-12T01:41:50;6.80;99.90
10314;DHT22;5202;49.138;10.090;2023-04-12T01:44:20;6.80;99.90
10314;DHT22;5202;49.138;10.090;2023-04-12T01:46:48;6.90;99.90
10314;DHT22;5202;49.138;10.090;2023-04-12T01:49:18;6.90;99.90
10314;DHT22;5202;49.138;10.090;2023-04-12T01:51:51;6.90;99.90
10314;DHT22;5202;49.138;10.090;2023-04-12T01:54:26;6.90;99.90
10314;DHT22;5202;49.138;10.090;2023-04-12T01:56:56;6.90;99.90
10314;DHT22;5202;49.138;10.090;2023-04-12T01:59:35;6.90;99.90
10314;DHT22;5202;49.138;10.090;2023-04-12T02:02:12;6.90;99.90
10314;DHT22;5202;49.138;10.090;2023-04-12T02:04:42;6.90;99.90
10314;DHT22;5202;49.138;10.090;2023-04-12T02:07:12;7.00;99.90
10314;DHT22;5202;49.138;10.090;2023-04-12T02:09:41;7.00;99.90
10314;DHT22;5202;49.138;10.090;2023-04-12T02:12:09;7.00;99.90
10314;DHT22;5202;49.138;10.090;2023-04-12T02:14:39;7.00;99.90
10314;DHT22;5202;49.138;10.090;2023-04-12T02:17:07;7.00;99.90
10314;DHT22;5202;49.138;10.090;2023-04-12T02:19:36;7.10;99.90
10314;DHT22;5202;49.138;10.090;2023-04-12T02:22:04;7.10;99.90
10314;DHT22;5202;49.138;10.090;2023-04-12T02:24:34;7.10;99.90
10314;DHT22;5202;49.138;10.090;2023-04-12T02:27:02;7.00;99.90
10314;DHT22;5202;49.138;10.090;2023-04-12T02:29:32;6.90;99.90
10314;DHT22;5202;49.138;10.090;2023-04-12T02:32:01;6.90;99.90
10314;DHT22;5202;49.138;10.090;2023-04-12T02:34:31;7.00;99.90
10314;DHT22;5202;49.138;10.090;2023-04-12T02:37:24;7.00;99.90
10314;DHT22;5202;49.138;10.090;2023-04-12T02:39:53;7.10;99.90
10314;DHT22;5202;49.138;10.090;2023-04-12T02:42:23;7.10;99.90
10314;DHT22;5202;49.138;10.090;2023-04-12T02:44:52;7.10;99.90
10314;DHT22;5202;49.138;10.090;2023-04-12T02:47:21;7.10;99.90
10314;DHT22;5202;49.138;10.090;2023-04-12T02:49:55;7.20;99.90
10314;DHT22;5202;49.138;10.090;2023-04-12T02:52:24;7.20;99.90
10314;DHT22;5202;49.138;10.090;2023-04-12T02:55:01;7.10;99.90
10314;DHT22;5202;49.138;10.090;2023-04-12T02:57:29;7.10;99.90
10314;DHT22;5202;49.138;10.090;2023-04-12T02:59:58;7.10;99.90
10314;DHT22;5202;49.138;10.090;2023-04-12T03:02:36;7.20;99.90
10314;DHT22;5202;49.138;10.090;2023-04-12T03:05:08;7.20;99.90
10314;DHT22;5202;49.138;10.090;2023-04-12T03:07:40;7.20;99.90
10314;DHT22;5202;49.138;10.090;2023-04-12T03:10:09;7.20;99.90
10314;DHT22;5202;49.138;10.090;2023-04-12T03:12:43;7.20;99.90
10314;DHT22;5202;49.138;10.090;2023-04-12T03:15:14;7.20;99.90
10314;DHT22;5202;49.138;10.090;2023-04-12T03:17:48;7.20;99.90
10314;DHT22;5202;49.138;10.090;2023-04-12T03:20:20;7.20;99.90
10314;DHT22;5202;49.138;10.090;2023-04-12T03:22:58;7.10;99.90
10314;DHT22;5202;49.138;10.090;2023-04-12T03:25:28;7.10;99.90
10314;DHT22;5202;49.138;10.090;2023-04-12T03:28:05;7.10;99.90
10314;DHT22;5202;49.138;10.090;2023-04-12T03:30:46;7.20;99.90
10314;DHT22;5202;49.138;10.090;2023-04-12T03:33:19;7.10;99.90
10314;DHT22;5202;49.138;10.090;2023-04-12T03:35:48;7.10;99.90
10314;DHT22;5202;49.138;10.090;2023-04-12T03:38:17;7.10;99.90
10314;DHT22;5202;49.138;10.090;2023-04-12T03:40:46;7.20;99.90
10314;DHT22;5202;49.138;10.090;2023-04-12T03:43:17;7.20;99.90
10314;DHT22;5202;49.138;10.090;2023-04-12T03:45:45;7.20;99.90
10314;DHT22;5202;49.138;10.090;2023-04-12T03:48:14;7.20;99.90
10314;DHT22;5202;49.138;10.090;2023-04-12T03:50:44;7.20;99.90
10314;DHT22;5202;49.138;10.090;2023-04-12T03:53:19;7.20;99.90
10314;DHT22;5202;49.138;10.090;2023-04-12T03:55:49;7.20;99.90
10314;DHT22;5202;49.138;10.090;2023-04-12T03:58:19;7.20;99.90
10314;DHT22;5202;49.138;10.090;2023-04-12T04:00:47;7.20;99.90
10314;DHT22;5202;49.138;10.090;2023-04-12T04:03:16;7.20;99.90
10314;DHT22;5202;49.138;10.090;2023-04-12T04:06:01;7.20;99.90
10314;DHT22;5202;49.138;10.090;2023-04-12T04:08:31;7.20;99.90
10314;DHT22;5202;49.138;10.090;2023-04-12T04:10:59;7.20;99.90
10314;DHT22;5202;49.138;10.090;2023-04-12T04:13:35;7.20;99.90
10314;DHT22;5202;49.138;10.090;2023-04-12T04:16:07;7.20;99.90
10314;DHT22;5202;49.138;10.090;2023-04-12T04:18:38;7.20;99.90
10314;DHT22;5202;49.138;10.090;2023-04-12T04:21:11;7.20;99.90
10314;DHT22;5202;49.138;10.090;2023-04-12T04:23:40;7.20;99.90
10314;DHT22;5202;49.138;10.090;2023-04-12T04:26:11;7.20;99.90
10314;DHT22;5202;49.138;10.090;2023-04-12T04:28:46;7.20;99.90
10314;DHT22;5202;49.138;10.090;2023-04-12T04:31:19;7.20;99.90
10314;DHT22;5202;49.138;10.090;2023-04-12T04:33:49;7.30;99.90
10314;DHT22;5202;49.138;10.090;2023-04-12T04:36:24;7.30;99.90
10314;DHT22;5202;49.138;10.090;2023-04-12T04:38:54;7.30;99.90
10314;DHT22;5202;49.138;10.090;2023-04-12T04:41:36;7.30;99.90
10314;DHT22;5202;49.138;10.090;2023-04-12T04:44:08;7.30;99.90
10314;DHT22;5202;49.138;10.090;2023-04-12T04:46:43;7.30;99.90
10314;DHT22;5202;49.138;10.090;2023-04-12T04:49:11;7.30;99.90
10314;DHT22;5202;49.138;10.090;2023-04-12T04:51:41;7.30;99.90
10314;DHT22;5202;49.138;10.090;2023-04-12T04:54:11;7.30;99.90
10314;DHT22;5202;49.138;10.090;2023-04-12T04:56:41;7.30;99.90
10314;DHT22;5202;49.138;10.090;2023-04-12T04:59:11;7.30;99.90
10314;DHT22;5202;49.138;10.090;2023-04-12T05:01:40;7.30;99.90
10314;DHT22;5202;49.138;10.090;2023-04-12T05:04:09;7.30;99.90
10314;DHT22;5202;49.138;10.090;2023-04-12T05:06:37;7.30;99.90
10314;DHT22;5202;49.138;10.090;2023-04-12T05:09:09;7.30;99.90
10314;DHT22;5202;49.138;10.090;2023-04-12T05:11:44;7.30;99.90
10314;DHT22;5202;49.138;10.090;2023-04-12T05:14:13;7.30;99.90
10314;DHT22;5202;49.138;10.090;2023-04-12T05:16:41;7.30;99.90
10314;DHT22;5202;49.138;10.090;2023-04-12T05:19:10;7.30;99.90
10314;DHT22;5202;49.138;10.090;2023-04-12T05:21:39;7.30;99.90
10314;DHT22;5202;49.138;10.090;2023-04-12T05:24:09;7.30;99.90
10314;DHT22;5202;49.138;10.090;2023-04-12T05:26:39;7.30;99.90
10314;DHT22;5202;49.138;10.090;2023-04-12T05:29:12;7.30;99.90
10314;DHT22;5202;49.138;10.090;2023-04-12T05:31:41;7.30;99.90
10314;DHT22;5202;49.138;10.090;2023-04-12T05:34:17;7.30;99.90
10314;DHT22;5202;49.138;10.090;2023-04-12T05:36:51;7.40;99.90
10314;DHT22;5202;49.138;10.090;2023-04-12T05:39:22;7.40;99.90
10314;DHT22;5202;49.138;10.090;2023-04-12T05:41:51;7.40;99.90
10314;DHT22;5202;49.138;10.090;2023-04-12T05:44:19;7.40;99.90
10314;DHT22;5202;49.138;10.090;2023-04-12T05:46:48;7.40;99.90
10314;DHT22;5202;49.138;10.090;2023-04-12T05:49:16;7.40;99.90
10314;DHT22;5202;49.138;10.090;2023-04-12T05:51:45;7.40;99.90
10314;DHT22;5202;49.138;10.090;2023-04-12T05:54:19;7.40;99.90
10314;DHT22;5202;49.138;10.090;2023-04-12T05:56:52;7.50;99.90
10314;DHT22;5202;49.138;10.090;2023-04-12T05:59:22;7.50;99.90
10314;DHT22;5202;49.138;10.090;2023-04-12T06:01:50;7.50;99.90
10314;DHT22;5202;49.138;10.090;2023-04-12T06:04:52;7.50;99.90
10314;DHT22;5202;49.138;10.090;2023-04-12T06:07:47;7.50;99.90
10314;DHT22;5202;49.138;10.090;2023-04-12T06:10:16;7.50;99.90
10314;DHT22;5202;49.138;10.090;2023-04-12T06:12:52;7.50;99.90
10314;DHT22;5202;49.138;10.090;2023-04-12T06:15:20;7.60;99.90
10314;DHT22;5202;49.138;10.090;2023-04-12T06:17:52;7.60;99.90
10314;DHT22;5202;49.138;10.090;2023-04-12T06:20:20;7.60;99.90
10314;DHT22;5202;49.138;10.090;2023-04-12T06:22:49;7.50;99.90
10314;DHT22;5202;49.138;10.090;2023-04-12T06:25:17;7.60;99.90
10314;DHT22;5202;49.138;10.090;2023-04-12T06:27:47;7.60;99.90
10314;DHT22;5202;49.138;10.090;2023-04-12T06:30:18;7.60;99.90
10314;DHT22;5202;49.138;10.090;2023-04-12T06:32:50;7.50;99.90
10314;DHT22;5202;49.138;10.090;2023-04-12T06:35:19;7.50;99.90
10314;DHT22;5202;49.138;10.090;2023-04-12T06:37:47;7.60;99.90
10314;DHT22;5202;49.138;10.090;2023-04-12T06:40:15;7.60;99.90
10314;DHT22;5202;49.138;10.090;2023-04-12T06:42:44;7.60;99.90
10314;DHT22;5202;49.138;10.090;2023-04-12T06:45:18;7.60;99.90
10314;DHT22;5202;49.138;10.090;2023-04-12T06:47:47;7.60;99.90
10314;DHT22;5202;49.138;10.090;2023-04-12T06:50:15;7.60;99.90
10314;DHT22;5202;49.138;10.090;2023-04-12T06:52:44;7.70;99.90
10314;DHT22;5202;49.138;10.090;2023-04-12T06:55:14;7.60;99.90
10314;DHT22;5202;49.138;10.090;2023-04-12T06:57:43;7.60;99.90
10314;DHT22;5202;49.138;10.090;2023-04-12T07:00:12;7.60;99.90
10314;DHT22;5202;49.138;10.090;2023-04-12T07:02:42;7.70;99.90
10314;DHT22;5202;49.138;10.090;2023-04-12T07:05:11;7.70;99.90
10314;DHT22;5202;49.138;10.090;2023-04-12T07:07:40;7.80;99.90
10314;DHT22;5202;49.138;10.090;2023-04-12T07:10:08;7.80;99.90
10314;DHT22;5202;49.138;10.090;2023-04-12T07:12:37;7.80;99.90
10314;DHT22;5202;49.138;10.090;2023-04-12T07:15:06;7.80;99.90
10314;DHT22;5202;49.138;10.090;2023-04-12T07:17:35;7.90;99.90
10314;DHT22;5202;49.138;10.090;2023-04-12T07:20:06;7.90;99.90
10314;DHT22;5202;49.138;10.090;2023-04-12T07:22:34;8.00;99.90
10314;DHT22;5202;49.138;10.090;2023-04-12T07:25:04;8.00;99.90
10314;DHT22;5202;49.138;10.090;2023-04-12T07:27:36;8.00;99.90
10314;DHT22;5202;49.138;10.090;2023-04-12T07:30:05;8.00;99.90
10314;DHT22;5202;49.138;10.090;2023-04-12T07:32:34;8.10;99.90
10314;DHT22;5202;49.138;10.090;2023-04-12T07:35:02;8.10;99.90
10314;DHT22;5202;49.138;10.090;2023-04-12T07:37:34;8.20;99.90
10314;DHT22;5202;49.138;10.090;2023-04-12T07:40:03;8.20;99.90
10314;DHT22;5202;49.138;10.090;2023-04-12T07:42:32;8.20;99.90
10314;DHT22;5202;49.138;10.090;2023-04-12T07:45:00;8.20;99.90
10314;DHT22;5202;49.138;10.090;2023-04-12T07:47:28;8.10;99.90
10314;DHT22;5202;49.138;10.090;2023-04-12T07:49:57;8.20;99.90
10314;DHT22;5202;49.138;10.090;2023-04-12T07:52:27;8.20;99.90
10314;DHT22;5202;49.138;10.090;2023-04-12T07:54:55;8.20;99.90
10314;DHT22;5202;49.138;10.090;2023-04-12T07:57:23;8.20;99.90
10314;DHT22;5202;49.138;10.090;2023-04-12T07:59:52;8.20;99.90
10314;DHT22;5202;49.138;10.090;2023-04-12T08:02:22;8.20;99.90
10314;DHT22;5202;49.138;10.090;2023-04-12T08:04:52;8.10;99.90
10314;DHT22;5202;49.138;10.090;2023-04-12T08:07:21;8.10;99.90
10314;DHT22;5202;49.138;10.090;2023-04-12T08:09:51;8.20;99.90
10314;DHT22;5202;49.138;10.090;2023-04-12T08:12:19;8.20;99.90
10314;DHT22;5202;49.138;10.090;2023-04-12T08:14:48;8.20;99.90
10314;DHT22;5202;49.138;10.090;2023-04-12T08:17:16;8.30;99.90
10314;DHT22;5202;49.138;10.090;2023-04-12T08:19:44;8.30;99.90
10314;DHT22;5202;49.138;10.090;2023-04-12T08:22:13;8.30;99.90
10314;DHT22;5202;49.138;10.090;2023-04-12T08:24:41;8.40;99.90
10314;DHT22;5202;49.138;10.090;2023-04-12T08:27:11;8.40;99.90
10314;DHT22;5202;49.138;10.090;2023-04-12T08:29:39;8.40;99.90
10314;DHT22;5202;49.138;10.090;2023-04-12T08:32:08;8.40;99.90
10314;DHT22;5202;49.138;10.090;2023-04-12T08:34:38;8.50;99.90
10314;DHT22;5202;49.138;10.090;2023-04-12T08:37:06;8.50;99.90
10314;DHT22;5202;49.138;10.090;2023-04-12T08:39:34;8.50;99.90
10314;DHT22;5202;49.138;10.090;2023-04-12T08:42:03;8.50;99.90
10314;DHT22;5202;49.138;10.090;2023-04-12T08:44:37;8.60;99.90
10314;DHT22;5202;49.138;10.090;2023-04-12T08:47:09;8.50;99.90
10314;DHT22;5202;49.138;10.090;2023-04-12T08:49:38;8.70;99.90
10314;DHT22;5202;49.138;10.090;2023-04-12T08:52:07;8.70;99.90
10314;DHT22;5202;49.138;10.090;2023-04-12T08:54:37;8.70;99.90
10314;DHT22;5202;49.138;10.090;2023-04-12T08:57:06;8.70;99.90
10314;DHT22;5202;49.138;10.090;2023-04-12T08:59:38;8.70;99.90
10314;DHT22;5202;49.138;10.090;2023-04-12T09:02:09;8.80;99.90
10314;DHT22;5202;49.138;10.090;2023-04-12T09:04:47;8.80;99.90
10314;DHT22;5202;49.138;10.090;2023-04-12T09:07:17;8.80;99.90
10314;DHT22;5202;49.138;10.090;2023-04-12T09:09:46;8.80;99.90
10314;DHT22;5202;49.138;10.090;2023-04-12T09:12:15;8.90;99.90
10314;DHT22;5202;49.138;10.090;2023-04-12T09:14:47;8.90;99.90
10314;DHT22;5202;49.138;10.090;2023-04-12T09:17:23;8.90;99.90
10314;DHT22;5202;49.138;10.090;2023-04-12T09:19:53;8.80;99.90
10314;DHT22;5202;49.138;10.090;2023-04-12T09:22:32;8.90;99.90
10314;DHT22;5202;49.138;10.090;2023-04-12T09:25:02;9.00;99.90
10314;DHT22;5202;49.138;10.090;2023-04-12T09:27:44;9.00;99.90
10314;DHT22;5202;49.138;10.090;2023-04-12T09:30:16;9.10;99.90
10314;DHT22;5202;49.138;10.090;2023-04-12T09:32:46;9.10;99.90
10314;DHT22;5202;49.138;10.090;2023-04-12T09:35:15;9.20;99.90
10314;DHT22;5202;49.138;10.090;2023-04-12T09:37:44;9.20;99.90
10314;DHT22;5202;49.138;10.090;2023-04-12T09:40:13;9.30;99.90
10314;DHT22;5202;49.138;10.090;2023-04-12T09:42:50;9.40;99.90
10314;DHT22;5202;49.138;10.090;2023-04-12T09:45:22;9.50;99.90
10314;DHT22;5202;49.138;10.090;2023-04-12T09:47:53;9.60;99.90
10314;DHT22;5202;49.138;10.090;2023-04-12T09:50:22;9.70;99.90
10314;DHT22;5202;49.138;10.090;2023-04-12T09:52:52;9.60;99.90
10314;DHT22;5202;49.138;10.090;2023-04-12T09:55:22;9.70;99.90
10314;DHT22;5202;49.138;10.090;2023-04-12T09:57:53;9.70;99.90
10314;DHT22;5202;49.138;10.090;2023-04-12T10:00:24;9.80;99.90
10314;DHT22;5202;49.138;10.090;2023-04-12T10:02:54;9.80;99.90
10314;DHT22;5202;49.138;10.090;2023-04-12T10:05:24;9.90;99.90
10314;DHT22;5202;49.138;10.090;2023-04-12T10:08:06;9.90;99.90
10314;DHT22;5202;49.138;10.090;2023-04-12T10:10:35;9.80;99.90
10314;DHT22;5202;49.138;10.090;2023-04-12T10:13:04;9.80;99.90
10314;DHT22;5202;49.138;10.090;2023-04-12T10:15:38;9.80;99.90
10314;DHT22;5202;49.138;10.090;2023-04-12T10:18:10;9.70;99.90
10314;DHT22;5202;49.138;10.090;2023-04-12T10:20:39;9.70;99.90
10314;DHT22;5202;49.138;10.090;2023-04-12T10:23:11;9.60;99.90
10314;DHT22;5202;49.138;10.090;2023-04-12T10:25:40;9.50;99.90
10314;DHT22;5202;49.138;10.090;2023-04-12T10:28:14;9.30;99.90
10314;DHT22;5202;49.138;10.090;2023-04-12T10:30:46;9.30;99.90
10314;DHT22;5202;49.138;10.090;2023-04-12T10:33:18;9.40;99.90
10314;DHT22;5202;49.138;10.090;2023-04-12T10:35:57;9.40;99.90
10314;DHT22;5202;49.138;10.090;2023-04-12T10:38:29;9.30;99.90
10314;DHT22;5202;49.138;10.090;2023-04-12T10:41:15;9.40;99.90
10314;DHT22;5202;49.138;10.090;2023-04-12T10:43:44;9.40;99.90
10314;DHT22;5202;49.138;10.090;2023-04-12T10:46:49;9.40;99.90
10314;DHT22;5202;49.138;10.090;2023-04-12T10:49:18;9.40;99.90
10314;DHT22;5202;49.138;10.090;2023-04-12T10:52:11;9.40;99.90
10314;DHT22;5202;49.138;10.090;2023-04-12T10:54:41;9.40;99.90
10314;DHT22;5202;49.138;10.090;2023-04-12T11:00:14;9.50;99.90
10314;DHT22;5202;49.138;10.090;2023-04-12T11:03:04;9.60;99.90
10314;DHT22;5202;49.138;10.090;2023-04-12T11:05:58;9.70;99.90
10314;DHT22;5202;49.138;10.090;2023-04-12T11:09:21;9.80;99.90
10314;DHT22;5202;49.138;10.090;2023-04-12T11:11:55;9.80;99.90
10314;DHT22;5202;49.138;10.090;2023-04-12T11:14:29;9.70;99.90
10314;DHT22;5202;49.138;10.090;2023-04-12T11:17:20;9.80;99.90
10314;DHT22;5202;49.138;10.090;2023-04-12T11:19:55;9.90;99.90
10314;DHT22;5202;49.138;10.090;2023-04-12T11:22:29;9.90;99.90
10314;DHT22;5202;49.138;10.090;2023-04-12T11:25:02;10.00;99.90
10314;DHT22;5202;49.138;10.090;2023-04-12T11:27:33;10.00;99.90
10314;DHT22;5202;49.138;10.090;2023-04-12T11:30:07;10.00;99.90
10314;DHT22;5202;49.138;10.090;2023-04-12T11:32:39;10.00;99.90
10314;DHT22;5202;49.138;10.090;2023-04-12T11:35:14;10.00;99.90
10314;DHT22;5202;49.138;10.090;2023-04-12T11:37:48;10.10;99.90
10314;DHT22;5202;49.138;10.090;2023-04-12T11:40:21;10.10;99.90
10314;DHT22;5202;49.138;10.090;2023-04-12T11:42:54;10.10;99.90
10314;DHT22;5202;49.138;10.090;2023-04-12T11:45:26;10.20;99.90
10314;DHT22;5202;49.138;10.090;2023-04-12T11:48:00;10.20;99.90
10314;DHT22;5202;49.138;10.090;2023-04-12T11:50:32;10.30;99.90
10314;DHT22;5202;49.138;10.090;2023-04-12T11:53:11;10.40;99.90
10314;DHT22;5202;49.138;10.090;2023-04-12T11:55:47;10.40;99.90
10314;DHT22;5202;49.138;10.090;2023-04-12T11:58:21;10.40;99.90
10314;DHT22;5202;49.138;10.090;2023-04-12T12:00:53;10.40;99.90
10314;DHT22;5202;49.138;10.090;2023-04-12T12:03:26;10.50;99.90
10314;DHT22;5202;49.138;10.090;2023-04-12T12:05:59;10.60;99.90
10314;DHT22;5202;49.138;10.090;2023-04-12T12:08:30;10.60;99.90
10314;DHT22;5202;49.138;10.090;2023-04-12T12:11:00;10.70;99.90
10314;DHT22;5202;49.138;10.090;2023-04-12T12:13:45;10.70;99.90
10314;DHT22;5202;49.138;10.090;2023-04-12T12:16:17;10.80;99.90
10314;DHT22;5202;49.138;10.090;2023-04-12T12:18:49;10.80;99.90
10314;DHT22;5202;49.138;10.090;2023-04-12T12:21:20;10.80;99.90
10314;DHT22;5202;49.138;10.090;2023-04-12T12:23:49;10.80;99.90
10314;DHT22;5202;49.138;10.090;2023-04-12T12:26:20;10.80;99.90
10314;DHT22;5202;49.138;10.090;2023-04-12T12:28:51;10.80;99.90
10314;DHT22;5202;49.138;10.090;2023-04-12T12:31:21;10.80;99.90
10314;DHT22;5202;49.138;10.090;2023-04-12T12:33:53;10.80;99.90
10314;DHT22;5202;49.138;10.090;2023-04-12T12:36:29;10.90;99.90
10314;DHT22;5202;49.138;10.090;2023-04-12T12:39:03;10.90;99.90
10314;DHT22;5202;49.138;10.090;2023-04-12T12:41:34;11.10;99.90
10314;DHT22;5202;49.138;10.090;2023-04-12T12:44:02;11.30;99.90
10314;DHT22;5202;49.138;10.090;2023-04-12T12:46:31;11.30;99.90
10314;DHT22;5202;49.138;10.090;2023-04-12T12:49:18;11.30;99.90
10314;DHT22;5202;49.138;10.090;2023-04-12T12:51:47;11.50;99.90
10314;DHT22;5202;49.138;10.090;2023-04-12T12:54:17;11.60;99.90
10314;DHT22;5202;49.138;10.090;2023-04-12T12:57:05;11.70;99.90
10314;DHT22;5202;49.138;10.090;2023-04-12T12:59:34;11.70;99.90
10314;DHT22;5202;49.138;10.090;2023-04-12T13:02:02;11.70;99.90
10314;DHT22;5202;49.138;10.090;2023-04-12T13:04:31;11.70;99.90
10314;DHT22;5202;49.138;10.090;2023-04-12T13:07:01;11.60;99.90
10314;DHT22;5202;49.138;10.090;2023-04-12T13:09:30;11.60;99.90
10314;DHT22;5202;49.138;10.090;2023-04-12T13:11:59;11.70;99.90
10314;DHT22;5202;49.138;10.090;2023-04-12T13:14:28;11.70;99.90
10314;DHT22;5202;49.138;10.090;2023-04-12T13:16:56;11.80;99.90
10314;DHT22;5202;49.138;10.090;2023-04-12T13:19:24;11.80;99.90
10314;DHT22;5202;49.138;10.090;2023-04-12T13:21:53;11.80;99.90
10314;DHT22;5202;49.138;10.090;2023-04-12T13:24:22;11.80;99.90
10314;DHT22;5202;49.138;10.090;2023-04-12T13:26:51;11.80;99.90
10314;DHT22;5202;49.138;10.090;2023-04-12T13:29:19;11.80;99.90
10314;DHT22;5202;49.138;10.090;2023-04-12T13:31:47;11.80;99.90
10314;DHT22;5202;49.138;10.090;2023-04-12T13:34:15;12.00;99.90
10314;DHT22;5202;49.138;10.090;2023-04-12T13:36:43;12.20;99.90
10314;DHT22;5202;49.138;10.090;2023-04-12T13:39:12;12.30;99.90
10314;DHT22;5202;49.138;10.090;2023-04-12T13:41:41;12.30;99.90
10314;DHT22;5202;49.138;10.090;2023-04-12T13:44:09;12.40;99.90
10314;DHT22;5202;49.138;10.090;2023-04-12T13:46:38;12.40;99.90
10314;DHT22;5202;49.138;10.090;2023-04-12T13:49:08;12.30;99.90
10314;DHT22;5202;49.138;10.090;2023-04-12T13:51:36;12.30;99.90
10314;DHT22;5202;49.138;10.090;2023-04-12T13:54:04;12.40;99.90
10314;DHT22;5202;49.138;10.090;2023-04-12T13:56:33;12.40;99.90
10314;DHT22;5202;49.138;10.090;2023-04-12T13:59:02;12.60;99.90
10314;DHT22;5202;49.138;10.090;2023-04-12T14:01:31;12.70;99.90
10314;DHT22;5202;49.138;10.090;2023-04-12T14:04:00;12.80;99.90
10314;DHT22;5202;49.138;10.090;2023-04-12T14:06:32;12.90;99.90
10314;DHT22;5202;49.138;10.090;2023-04-12T14:09:02;13.00;99.90
10314;DHT22;5202;49.138;10.090;2023-04-12T14:11:44;13.00;99.90
10314;DHT22;5202;49.138;10.090;2023-04-12T14:14:15;13.10;99.90
10314;DHT22;5202;49.138;10.090;2023-04-12T14:16:43;13.10;99.90
10314;DHT22;5202;49.138;10.090;2023-04-12T14:19:11;13.10;99.90
10314;DHT22;5202;49.138;10.090;2023-04-12T14:21:39;13.00;99.90
10314;DHT22;5202;49.138;10.090;2023-04-12T14:24:08;13.00;99.90
10314;DHT22;5202;49.138;10.090;2023-04-12T14:26:36;13.00;99.90
10314;DHT22;5202;49.138;10.090;2023-04-12T14:29:05;13.00;99.90
10314;DHT22;5202;49.138;10.090;2023-04-12T14:31:35;13.00;99.90
10314;DHT22;5202;49.138;10.090;2023-04-12T14:34:04;13.10;99.90
10314;DHT22;5202;49.138;10.090;2023-04-12T14:36:34;13.20;99.90
10314;DHT22;5202;49.138;10.090;2023-04-12T14:39:02;13.20;99.90
10314;DHT22;5202;49.138;10.090;2023-04-12T14:41:35;13.20;99.90
10314;DHT22;5202;49.138;10.090;2023-04-12T14:44:04;13.10;99.90
10314;DHT22;5202;49.138;10.090;2023-04-12T14:46:32;13.10;99.90
10314;DHT22;5202;49.138;10.090;2023-04-12T14:49:02;13.00;99.90
10314;DHT22;5202;49.138;10.090;2023-04-12T14:51:30;13.00;99.90
10314;DHT22;5202;49.138;10.090;2023-04-12T14:53:58;13.00;99.90
10314;DHT22;5202;49.138;10.090;2023-04-12T14:56:27;12.90;99.90
10314;DHT22;5202;49.138;10.090;2023-04-12T14:58:58;12.90;99.90
10314;DHT22;5202;49.138;10.090;2023-04-12T15:01:26;12.90;99.90
10314;DHT22;5202;49.138;10.090;2023-04-12T15:03:54;12.90;99.90
10314;DHT22;5202;49.138;10.090;2023-04-12T15:06:25;13.00;99.90
10314;DHT22;5202;49.138;10.090;2023-04-12T15:08:56;13.00;99.90
10314;DHT22;5202;49.138;10.090;2023-04-12T15:11:25;13.10;99.90
10314;DHT22;5202;49.138;10.090;2023-04-12T15:13:55;13.30;99.90
10314;DHT22;5202;49.138;10.090;2023-04-12T15:16:24;13.40;99.90
10314;DHT22;5202;49.138;10.090;2023-04-12T15:18:54;13.30;99.90
10314;DHT22;5202;49.138;10.090;2023-04-12T15:21:28;13.30;99.90
10314;DHT22;5202;49.138;10.090;2023-04-12T15:23:57;13.30;99.90
10314;DHT22;5202;49.138;10.090;2023-04-12T15:26:25;13.30;99.90
10314;DHT22;5202;49.138;10.090;2023-04-12T15:28:53;13.30;99.90
10314;DHT22;5202;49.138;10.090;2023-04-12T15:31:21;13.30;99.90
10314;DHT22;5202;49.138;10.090;2023-04-12T15:33:50;13.40;99.90
10314;DHT22;5202;49.138;10.090;2023-04-12T15:36:18;13.40;99.90
10314;DHT22;5202;49.138;10.090;2023-04-12T15:38:49;13.50;99.90
10314;DHT22;5202;49.138;10.090;2023-04-12T15:41:17;13.50;99.90
10314;DHT22;5202;49.138;10.090;2023-04-12T15:43:45;13.60;99.90
10314;DHT22;5202;49.138;10.090;2023-04-12T15:46:15;13.60;99.90
10314;DHT22;5202;49.138;10.090;2023-04-12T15:48:44;13.50;99.90
10314;DHT22;5202;49.138;10.090;2023-04-12T15:51:13;13.50;99.90
10314;DHT22;5202;49.138;10.090;2023-04-12T15:53:42;13.40;99.90
10314;DHT22;5202;49.138;10.090;2023-04-12T15:56:11;13.40;99.90
10314;DHT22;5202;49.138;10.090;2023-04-12T15:58:42;13.30;99.90
10314;DHT22;5202;49.138;10.090;2023-04-12T16:01:11;13.30;99.90
10314;DHT22;5202;49.138;10.090;2023-04-12T16:03:45;13.20;99.90
10314;DHT22;5202;49.138;10.090;2023-04-12T16:06:21;13.20;99.90
10314;DHT22;5202;49.138;10.090;2023-04-12T16:08:52;13.10;99.90
10314;DHT22;5202;49.138;10.090;2023-04-12T16:11:25;13.00;99.90